Fort Wayne, IN (46802)

3:09 AM EST on January 22, 2017 (GMT -0500)
Oakdale | | Change Station
Active Advisory: Flood Warning

Elev 794 ft 41.05 °N, 85.14 °W | Updated 3 seconds ago

Rain
Rain
50.1 °F
Feels Like 50.1 °F
N
2.0
Wind Variable Wind from South

Today
High -- | Low -- °F
--% Chance of Precip.
Yesterday
High -- | Low -- °F
Precip. -- in
Pressure 29.62 in
Visibility 7.0 miles
Clouds Few 5000 ft
Mostly Cloudy 7000 ft
Overcast 9000 ft
Dew Point 49 °F
Humidity 98%
Rainfall 0.30 in
Snow Depth Not available.
7:59 AM 5:45 PM
Waning Crescent, 28% visible
METAR KFWA 220754Z 00000KT 7SM -RA FEW050 BKN070 OVC090 10/09 A2962 RMK AO2 LTG DSNT S TSE22 SLP030 P0009 T01000089
Pressure 29.62 in
Visibility 7.0 miles
Clouds Few 5000 ft
Mostly Cloudy 7000 ft
Overcast 9000 ft
Dew Point 49 °F
Humidity 98%
Rainfall 0.30 in
Snow Depth Not available.
7:59 AM 5:45 PM
Waning Crescent, 28% visible
METAR KFWA 220754Z 00000KT 7SM -RA FEW050 BKN070 OVC090 10/09 A2962 RMK AO2 LTG DSNT S TSE22 SLP030 P0009 T01000089

Get Your Daily Forecast Email!

Thanks for signing up!

Be on the lookout for a verification email in your inbox.

You'll start receiving the daily forecast at 8 AM.

×

10-Day Weather Forecast

Almanac

Astronomy

Jan. 22, 2017 Rise Set
Actual Time
Civil Twilight
Nautical Twilight
Astronomical Twilight
Moon
Length of Visible Light
Length of Day
Tomorrow will be .
, % of the Moon is Illuminated

Today's Extremes

State Highs State Lows

Community

WunderPhotos

Upload Photos

1,962,540 photos uploaded!

WunderBlog® & News

Nearby

Air Quality

  Air Quality AQ Index Pollutant
Not available.

Snow Depth

Station Depth Elevation

Earthquake Activity

City Distance Mag. Time & Date
Minimum magnitude displayed is 2.5.

Coastal Water Temperatures

Place Temperature

Stations

Nearby Weather Stations

Station Location Temp. Windchill Dew Point Humidity Wind Precip. Elev Updated Type
                   

Watches & Warnings

Flood Warning
Issued: 11:19 PM EST Jan. 21, 2017 – National Weather Service

The Flood Warning continues for
the Saint Marys River near Decatur
* until Monday morning.
* At 11 PM Saturday the stage was 17.8 feet and rising.
* Minor flooding is occurring and minor flooding is forecast.
* Flood stage is 17.0 feet.
* Forecast... the river will fall below the 17.0 foot flood stage
around 8 am Sunday January 22.
* At 17.5 feet... County Road 225 north of Pleasant Mills is flooded.
Agricultural land flooding increases in northern... central and
eastern Adams County.


Lat... Lon 4093 8506 4094 8504 4084 8491 4082 8494